EDT,Max TemperatureF,Mean TemperatureF,Min TemperatureF,Max Dew PointF,MeanDew PointF,Min DewpointF,Max Humidity, Mean Humidity, Min Humidity, Max Sea Level PressureIn, Mean Sea Level PressureIn, Min Sea Level PressureIn, Max VisibilityMiles, Mean VisibilityMiles, Min VisibilityMiles, Max Wind SpeedMPH, Mean Wind SpeedMPH, Max Gust SpeedMPH,PrecipitationIn, CloudCover, Events, WindDirDegrees
2012-7-1,87,70,52,59,53,48,100,57,29,30.01,29.97,29.89,10,10,5,14,2,23,0.00,0,,299
2012-7-2,92,72,52,62,55,51,100,61,27,30.07,30.01,29.95,10,10,3,8,2,,0.00,1,,179
2012-7-3,84,74,64,70,65,56,100,78,47,29.95,29.86,29.81,10,10,1,23,4,29,0.00,2,Rain,226
2012-7-4,92,80,67,73,67,60,100,71,36,29.93,29.86,29.81,10,10,10,10,2,,0.00,1,,298
2012-7-5,92,80,67,72,68,64,99,70,39,29.98,29.92,29.87,10,10,10,13,4,17,0.00,0,Rain,251
2012-7-6,92,76,60,70,60,47,100,64,21,30.01,29.98,29.94,10,8,0,10,2,,0.00,0,Fog,276
2012-7-7,80,72,64,66,61,52,94,73,38,30.07,30.01,29.94,10,10,10,14,5,21,0.00,2,Rain,360
2012-7-8,80,67,54,61,55,49,100,69,34,30.12,30.08,30.04,10,9,1,12,2,20,0.00,1,,333
2012-7-9,79,64,49,62,53,47,100,69,32,30.11,30.08,30.05,10,10,7,12,2,20,0.00,2,,326
2012-7-10,79,63,47,57,49,45,100,65,31,30.19,30.15,30.12,10,9,0,12,2,,0.00,2,Fog,338
2012-7-11,87,66,44,55,48,40,100,58,23,30.23,30.18,30.13,10,10,3,8,1,,0.00,0,,259
2012-7-12,90,70,50,60,53,48,100,58,25,30.19,30.15,30.11,10,10,5,9,2,,0.00,0,,227
2012-7-13,92,73,54,62,56,52,100,58,26,30.16,30.12,30.06,10,10,10,12,2,17,0.00,1,,188
2012-7-14,84,73,62,75,66,60,100,79,53,30.12,30.07,30.02,10,10,5,8,2,23,0.00,3,Rain,165
2012-7-15,89,78,68,75,69,63,100,82,51,30.04,30.02,29.99,10,9,1,13,4,17,0.00,4,,314
2012-7-16,95,78,60,72,65,61,100,68,34,30.04,29.92,29.78,10,8,0,10,3,18,0.00,3,,234
2012-7-17,89,79,69,73,68,63,100,65,54,29.93,29.81,29.75,10,10,10,17,8,24,0.00,1,,283
2012-7-18,84,72,59,70,62,55,100,72,37,30.04,29.99,29.93,10,9,0,12,3,17,0.00,2,,49
2012-7-19,69,64,57,68,61,52,100,81,53,30.10,30.04,29.99,10,10,2,10,5,,0.00,6,,85
2012-7-20,80,64,48,66,54,48,100,67,34,30.17,30.12,30.08,10,8,0,12,2,,0.00,1,,39
2012-7-21,89,72,55,73,62,54,100,72,43,30.11,30.04,29.98,10,10,10,17,3,23,0.00,2,,260
2012-7-22,93,78,62,72,67,63,100,74,38,30.07,30.03,29.99,10,8,0,10,2,,0.00,2,,301
2012-7-23,95,82,69,72,66,57,94,61,28,30.01,29.88,29.81,10,10,10,20,7,32,0.00,1,,272
2012-7-24,82,70,59,66,55,45,100,61,26,30.03,29.98,29.92,10,10,7,14,6,18,0.00,1,,342
2012-7-25,84,65,46,75,59,46,100,79,44,30.02,29.83,29.59,10,10,7,12,3,24,0.00,3,,171
2012-7-26,80,74,68,75,69,64,100,89,65,29.80,29.67,29.59,10,7,0,12,4,,0.00,7,,351
2012-7-27,71,65,59,70,64,59,100,95,78,30.03,29.91,29.81,10,6,0,10,3,,0.00,6,,77
2012-7-28,82,66,50,63,56,50,100,72,34,30.14,30.11,30.03,10,8,0,10,2,,0.00,2,,338
2012-7-29,84,67,50,66,56,46,100,70,28,30.13,30.09,30.02,10,8,0,9,1,,0.00,1,,261
2012-7-30,89,73,57,68,61,57,100,70,40,30.04,29.96,29.87,10,8,1,14,3,32,0.00,2,,216
2012-7-31,78,70,62,70,64,61,100,83,57,29.97,29.91,29.87,10,10,4,14,5,23,0.00,4,,305